createdAt,value
2023-05-13T00:03:02.582Z,22.13
2023-05-13T00:06:06.429Z,22.92
2023-05-13T00:09:09.986Z,23.90
2023-05-13T00:12:12.663Z,25.00
2023-05-13T00:15:15.385Z,19.40
2023-05-13T00:18:20.833Z,21.58
2023-05-13T00:21:23.943Z,18.98
2023-05-13T00:24:29.791Z,21.73
2023-05-13T00:27:33.052Z,22.63
2023-05-13T00:30:43.861Z,17.10
2023-05-13T00:33:47.425Z,20.25
2023-05-13T00:36:50.177Z,17.75
2023-05-13T00:39:52.767Z,20.10
2023-05-13T00:42:55.701Z,18.63
2023-05-13T00:45:58.862Z,16.87
2023-05-13T00:49:02.363Z,15.63
2023-05-13T00:52:05.956Z,18.58
2023-05-13T00:55:12.959Z,17.05
2023-05-13T00:58:17.446Z,18.10
2023-05-13T01:01:34.397Z,17.60
2023-05-13T01:04:57.240Z,17.23
2023-05-13T01:08:35.653Z,14.55
2023-05-13T01:11:41.672Z,17.00
2023-05-13T01:15:01.188Z,15.73
2023-05-13T01:18:10.505Z,15.43
2023-05-13T01:21:16.406Z,14.55
2023-05-13T01:24:19.479Z,15.25
2023-05-13T01:27:22.179Z,12.35
2023-05-13T01:30:25.811Z,15.33
2023-05-13T01:33:29.882Z,14.20
2023-05-13T01:36:34.875Z,14.00
2023-05-13T01:39:38.438Z,13.68
2023-05-13T01:42:45.000Z,15.20
2023-05-13T01:45:47.624Z,15.23
2023-05-13T01:48:50.903Z,17.13
2023-05-13T01:51:53.612Z,16.33
2023-05-13T01:54:56.207Z,17.38
2023-05-13T01:57:58.820Z,19.80
2023-05-13T02:01:01.477Z,21.17
2023-05-13T02:04:04.341Z,18.20
2023-05-13T02:07:07.044Z,18.83
2023-05-13T02:10:10.734Z,20.00
2023-05-13T02:13:13.329Z,22.85
2023-05-13T02:16:20.163Z,21.83
2023-05-13T02:19:22.883Z,20.50
2023-05-13T02:22:25.694Z,20.65
2023-05-13T02:25:28.392Z,18.10
2023-05-13T02:28:33.417Z,19.42
2023-05-13T02:31:38.936Z,18.77
2023-05-13T02:34:41.626Z,17.80
2023-05-13T02:37:44.205Z,16.83
2023-05-13T02:40:47.203Z,16.02
2023-05-13T02:43:55.797Z,16.65
2023-05-13T02:46:58.847Z,16.70
2023-05-13T02:50:01.670Z,16.03
2023-05-13T02:53:05.990Z,16.15
2023-05-13T02:56:10.250Z,14.25
2023-05-13T02:59:12.976Z,16.90
2023-05-13T03:02:15.682Z,17.17
2023-05-13T03:05:19.052Z,22.07
2023-05-13T03:08:21.648Z,18.40
2023-05-13T03:11:24.271Z,23.27
2023-05-13T03:14:26.940Z,29.80
2023-05-13T03:17:32.103Z,28.77
2023-05-13T03:20:35.119Z,31.00
2023-05-13T03:23:39.060Z,31.23
2023-05-13T03:26:42.184Z,32.83
2023-05-13T03:29:45.328Z,30.30
2023-05-13T03:32:50.563Z,26.73
2023-05-13T03:35:53.387Z,25.03
2023-05-13T03:39:01.166Z,26.27
2023-05-13T03:42:04.083Z,25.17
2023-05-13T03:45:07.521Z,26.60
2023-05-13T03:48:12.779Z,25.10
2023-05-13T03:51:15.946Z,27.10
2023-05-13T03:54:18.875Z,28.15
2023-05-13T03:57:21.467Z,24.80
2023-05-13T04:00:24.345Z,27.98
2023-05-13T04:03:27.068Z,28.17
2023-05-13T04:06:32.814Z,25.77
2023-05-13T04:09:35.351Z,30.50
2023-05-13T04:12:38.915Z,26.27
2023-05-13T04:15:41.851Z,27.25
2023-05-13T04:18:44.555Z,25.53
2023-05-13T04:21:47.155Z,24.47
2023-05-13T04:24:52.180Z,22.70
2023-05-13T04:27:57.546Z,20.52
2023-05-13T04:31:13.784Z,18.48
2023-05-13T04:34:16.595Z,19.83
2023-05-13T04:37:20.326Z,19.10
2023-05-13T04:40:24.579Z,18.85
2023-05-13T04:43:28.942Z,18.65
2023-05-13T04:46:33.995Z,16.77
2023-05-13T04:49:37.459Z,16.47
2023-05-13T04:52:43.183Z,13.43
2023-05-13T04:55:50.289Z,14.40
2023-05-13T04:58:54.047Z,12.85
2023-05-13T05:01:58.259Z,16.10
2023-05-13T05:05:01.062Z,12.40
2023-05-13T05:08:03.925Z,12.93
2023-05-13T05:11:06.628Z,12.32
2023-05-13T05:14:13.172Z,13.38
2023-05-13T05:17:16.989Z,14.80
2023-05-13T05:20:20.483Z,17.17
2023-05-13T05:23:25.148Z,11.97
2023-05-13T05:26:31.843Z,13.55
2023-05-13T05:29:34.461Z,12.40
2023-05-13T05:32:37.176Z,12.23
2023-05-13T05:35:41.858Z,14.43
2023-05-13T05:38:48.426Z,10.83
2023-05-13T05:41:51.195Z,11.35
2023-05-13T05:44:54.315Z,13.30
2023-05-13T05:47:57.886Z,12.68
2023-05-13T05:51:00.727Z,10.80
2023-05-13T05:54:06.786Z,13.03
2023-05-13T05:57:10.332Z,13.60
2023-05-13T06:00:13.951Z,13.38
2023-05-13T06:03:22.406Z,18.65
2023-05-13T06:06:25.464Z,17.90
2023-05-13T06:09:28.146Z,13.67
2023-05-13T06:12:30.947Z,11.90
2023-05-13T06:15:33.820Z,12.38
2023-05-13T06:18:39.127Z,15.73
2023-05-13T06:21:43.245Z,14.63
2023-05-13T06:24:48.813Z,13.27
2023-05-13T06:27:51.422Z,13.57
2023-05-13T06:30:56.793Z,15.82
2023-05-13T06:34:02.338Z,12.07
2023-05-13T06:37:05.019Z,13.73
2023-05-13T06:40:08.469Z,15.13
2023-05-13T06:43:16.622Z,9.85
2023-05-13T06:46:23.563Z,9.18
2023-05-13T06:49:26.311Z,9.10
2023-05-13T06:52:31.647Z,9.73
2023-05-13T06:55:41.515Z,9.30
2023-05-13T06:58:44.309Z,13.23
2023-05-13T07:01:46.934Z,10.77
2023-05-13T07:04:49.570Z,9.98
2023-05-13T07:07:55.517Z,13.53
2023-05-13T07:11:07.115Z,9.60
2023-05-13T07:14:09.812Z,11.18
2023-05-13T07:17:12.462Z,11.63
2023-05-13T07:20:15.130Z,14.32
2023-05-13T07:23:17.722Z,10.87
2023-05-13T07:26:21.749Z,11.40
2023-05-13T07:29:25.898Z,14.88
2023-05-13T07:32:30.371Z,12.13
2023-05-13T07:35:33.628Z,12.50
2023-05-13T07:38:36.335Z,13.80
2023-05-13T07:41:38.987Z,13.73
2023-05-13T07:44:41.668Z,14.20
2023-05-13T07:47:44.774Z,12.02
2023-05-13T07:50:47.728Z,16.52
2023-05-13T07:53:52.646Z,13.90
2023-05-13T07:56:58.289Z,13.83
2023-05-13T08:00:00.889Z,14.15
2023-05-13T08:03:04.452Z,14.20
2023-05-13T08:06:07.544Z,13.98
2023-05-13T08:09:12.340Z,13.10
2023-05-13T08:12:17.332Z,11.80
2023-05-13T08:15:19.996Z,12.57
2023-05-13T08:18:22.806Z,15.30
2023-05-13T08:21:25.717Z,16.13
2023-05-13T08:24:28.343Z,14.80
2023-05-13T08:27:30.961Z,14.27
2023-05-13T08:30:33.576Z,13.07
2023-05-13T08:33:39.938Z,12.50
2023-05-13T08:36:42.708Z,13.93
2023-05-13T08:39:45.901Z,15.03
2023-05-13T08:42:51.144Z,21.03
2023-05-13T08:45:54.987Z,15.43
2023-05-13T08:48:58.277Z,14.50
2023-05-13T08:52:01.010Z,14.23
2023-05-13T08:55:04.079Z,14.57
2023-05-13T08:58:07.146Z,16.67
2023-05-13T09:01:13.232Z,16.30
2023-05-13T09:04:16.298Z,17.95
2023-05-13T09:07:18.904Z,20.02
2023-05-13T09:10:24.585Z,18.80
2023-05-13T09:13:27.177Z,20.50
2023-05-13T09:16:33.129Z,21.52
2023-05-13T09:19:36.427Z,22.35
2023-05-13T09:22:45.964Z,25.58
2023-05-13T09:25:48.517Z,20.13
2023-05-13T09:29:11.102Z,19.80
2023-05-13T09:32:14.925Z,21.45
2023-05-13T09:35:17.867Z,20.13
2023-05-13T09:38:28.993Z,21.27
2023-05-13T09:41:32.069Z,24.13
2023-05-13T09:44:38.436Z,20.93
2023-05-13T09:47:41.495Z,24.02
2023-05-13T09:50:53.177Z,23.80
2023-05-13T09:54:07.490Z,19.90
2023-05-13T09:57:13.622Z,20.40
2023-05-13T10:00:28.924Z,20.77
2023-05-13T10:03:35.039Z,22.08
2023-05-13T10:06:39.003Z,20.10
2023-05-13T10:09:43.822Z,20.73
2023-05-13T10:12:47.057Z,21.87
2023-05-13T10:15:51.264Z,23.07
2023-05-13T10:18:54.182Z,20.48
2023-05-13T10:21:57.762Z,16.90
2023-05-13T10:25:01.744Z,18.77
2023-05-13T10:28:05.451Z,20.33
2023-05-13T10:31:08.120Z,20.73
2023-05-13T10:34:11.273Z,21.05
2023-05-13T10:37:48.897Z,18.73
2023-05-13T10:41:12.221Z,19.20
2023-05-13T10:44:14.849Z,19.07
2023-05-13T10:47:17.518Z,23.20
2023-05-13T10:50:26.651Z,20.27
2023-05-13T10:53:33.426Z,22.73
2023-05-13T10:56:37.067Z,22.33
2023-05-13T11:00:03.786Z,16.97
2023-05-13T11:03:18.680Z,17.73
2023-05-13T11:06:34.920Z,17.38
2023-05-13T11:09:39.590Z,19.00
2023-05-13T11:12:42.194Z,18.42
2023-05-13T11:15:46.342Z,17.87
2023-05-13T11:18:51.321Z,19.97
2023-05-13T11:21:57.490Z,20.73
2023-05-13T11:25:04.883Z,17.55
2023-05-13T11:28:11.156Z,17.00
2023-05-13T11:31:21.580Z,18.20
2023-05-13T11:34:25.144Z,21.20
2023-05-13T11:37:27.800Z,23.23
2023-05-13T11:40:34.462Z,17.85
2023-05-13T11:43:39.508Z,17.88
2023-05-13T11:46:55.126Z,15.87
2023-05-13T11:49:58.665Z,17.53
2023-05-13T11:53:01.943Z,18.02
2023-05-13T11:56:11.289Z,19.05
2023-05-13T11:59:14.926Z,24.67
2023-05-13T12:02:21.568Z,19.17
2023-05-13T12:05:25.063Z,19.70
2023-05-13T12:08:28.016Z,21.02
2023-05-13T12:11:33.851Z,19.58
2023-05-13T12:14:36.954Z,20.67
2023-05-13T12:17:39.837Z,19.37
2023-05-13T12:20:42.476Z,19.90
2023-05-13T12:23:45.141Z,19.58
2023-05-13T12:26:48.648Z,23.23
2023-05-13T12:29:54.670Z,22.70
2023-05-13T12:32:59.192Z,20.60
2023-05-13T12:36:25.793Z,19.90
2023-05-13T12:39:28.642Z,20.48
2023-05-13T12:42:34.248Z,19.80
2023-05-13T12:45:40.260Z,20.13
2023-05-13T12:48:44.299Z,22.20
2023-05-13T12:51:46.944Z,21.03
2023-05-13T12:54:49.635Z,26.55
2023-05-13T12:58:11.408Z,20.45
2023-05-13T13:01:14.011Z,20.65
2023-05-13T13:04:17.118Z,22.90
2023-05-13T13:07:19.983Z,19.73
2023-05-13T13:10:22.755Z,23.88
2023-05-13T13:13:25.274Z,20.33
2023-05-13T13:16:27.973Z,21.15
2023-05-13T13:19:36.546Z,22.10
2023-05-13T13:22:39.246Z,20.47
2023-05-13T13:25:41.833Z,21.35
2023-05-13T13:28:44.694Z,23.27
2023-05-13T13:31:47.372Z,19.98
2023-05-13T13:34:50.036Z,18.97
2023-05-13T13:37:56.063Z,20.73
2023-05-13T13:40:58.591Z,19.17
2023-05-13T13:44:01.154Z,23.23
2023-05-13T13:47:03.922Z,19.05
2023-05-13T13:50:06.956Z,16.53
2023-05-13T13:53:09.674Z,17.27
2023-05-13T13:56:12.306Z,17.23
2023-05-13T13:59:14.843Z,15.20
2023-05-13T14:02:18.047Z,17.15
2023-05-13T14:05:20.726Z,17.40
2023-05-13T14:08:23.534Z,16.63
2023-05-13T14:11:26.477Z,17.35
2023-05-13T14:14:29.184Z,17.50
2023-05-13T14:17:34.397Z,18.45
2023-05-13T14:20:38.223Z,14.57
2023-05-13T14:23:42.081Z,14.77
2023-05-13T14:26:47.343Z,14.85
2023-05-13T14:29:52.448Z,15.50
2023-05-13T14:32:55.111Z,14.48
2023-05-13T14:35:57.993Z,12.93
2023-05-13T14:39:09.195Z,14.33
2023-05-13T14:42:14.431Z,13.38
2023-05-13T14:45:18.526Z,12.30
2023-05-13T14:48:21.641Z,14.65
2023-05-13T14:51:26.978Z,16.53
2023-05-13T14:54:35.527Z,15.20
2023-05-13T14:57:38.972Z,13.02
2023-05-13T15:00:41.772Z,12.00
2023-05-13T15:03:46.823Z,13.77
2023-05-13T15:06:49.624Z,12.13
2023-05-13T15:09:52.232Z,12.13
2023-05-13T15:12:56.189Z,10.65
2023-05-13T15:15:58.841Z,10.82
2023-05-13T15:19:01.545Z,12.88
2023-05-13T15:22:07.079Z,10.63
2023-05-13T15:25:09.944Z,11.80
2023-05-13T15:28:12.545Z,10.73
2023-05-13T15:31:15.210Z,10.80
2023-05-13T15:34:18.085Z,10.30
2023-05-13T15:37:23.120Z,9.73
2023-05-13T15:40:25.970Z,10.73
2023-05-13T15:43:28.474Z,10.85
2023-05-13T15:46:33.666Z,11.38
2023-05-13T15:49:36.554Z,10.82
2023-05-13T15:52:39.559Z,13.27
2023-05-13T15:55:42.199Z,10.60
2023-05-13T15:58:45.464Z,10.60
2023-05-13T16:01:48.191Z,10.80
2023-05-13T16:04:50.771Z,10.68
2023-05-13T16:07:53.368Z,11.17
2023-05-13T16:10:56.044Z,11.07
2023-05-13T16:13:58.795Z,10.25
2023-05-13T16:17:01.814Z,10.05
2023-05-13T16:20:04.775Z,11.20
2023-05-13T16:23:07.405Z,13.03
2023-05-13T16:26:09.963Z,12.13
2023-05-13T16:29:12.674Z,12.18
2023-05-13T16:32:15.306Z,12.48
2023-05-13T16:35:22.101Z,16.77
2023-05-13T16:38:26.124Z,12.00
2023-05-13T16:41:28.743Z,11.43
2023-05-13T16:44:31.681Z,11.48
2023-05-13T16:47:34.562Z,13.60
2023-05-13T16:50:40.357Z,12.32
2023-05-13T16:53:43.045Z,13.20
2023-05-13T16:56:46.931Z,10.00
2023-05-13T16:59:49.521Z,9.15
2023-05-13T17:02:54.971Z,11.65
2023-05-13T17:05:57.671Z,9.38
2023-05-13T17:09:00.392Z,12.80
2023-05-13T17:12:03.022Z,9.97
2023-05-13T17:15:06.147Z,9.38
2023-05-13T17:18:08.884Z,10.30
2023-05-13T17:21:13.883Z,11.73
2023-05-13T17:24:16.468Z,11.63
2023-05-13T17:27:19.033Z,9.30
2023-05-13T17:30:23.059Z,9.98
2023-05-13T17:33:25.861Z,11.95
2023-05-13T17:36:34.529Z,9.88
2023-05-13T17:39:40.361Z,15.07
2023-05-13T17:42:42.947Z,10.83
2023-05-13T17:45:45.713Z,15.73
2023-05-13T17:48:48.345Z,11.25
2023-05-13T17:51:51.350Z,13.00
2023-05-13T17:54:53.942Z,16.07
2023-05-13T17:57:56.697Z,17.27
2023-05-13T18:01:02.798Z,14.30
2023-05-13T18:04:06.419Z,13.00
2023-05-13T18:07:09.377Z,15.30
2023-05-13T18:10:12.041Z,11.63
2023-05-13T18:13:20.415Z,14.50
2023-05-13T18:16:23.125Z,14.68
2023-05-13T18:19:25.862Z,15.52
2023-05-13T18:22:31.460Z,35.65
2023-05-13T18:25:42.629Z,17.43
2023-05-13T18:28:54.949Z,14.60
2023-05-13T18:31:57.789Z,15.38
2023-05-13T18:35:08.187Z,16.42
2023-05-13T18:38:10.825Z,16.75
2023-05-13T18:41:13.597Z,16.90
2023-05-13T18:44:16.343Z,18.57
2023-05-13T18:47:18.996Z,14.10
2023-05-13T18:50:22.498Z,15.77
2023-05-13T18:53:28.458Z,17.25
2023-05-13T18:56:32.120Z,17.33
2023-05-13T18:59:34.715Z,16.10
2023-05-13T19:02:37.552Z,17.73
2023-05-13T19:05:43.536Z,15.30
2023-05-13T19:08:46.304Z,14.65
2023-05-13T19:11:48.930Z,14.60
2023-05-13T19:14:51.467Z,19.73
2023-05-13T19:17:54.225Z,15.93
2023-05-13T19:20:56.815Z,16.15
2023-05-13T19:23:59.401Z,16.20
2023-05-13T19:27:02.294Z,15.27
2023-05-13T19:30:05.970Z,16.13
2023-05-13T19:33:09.317Z,14.95
2023-05-13T19:36:12.045Z,15.40
2023-05-13T19:39:14.710Z,14.75
2023-05-13T19:42:17.292Z,15.00
2023-05-13T19:45:20.954Z,15.60
2023-05-13T19:48:27.770Z,16.88
2023-05-13T19:51:32.659Z,17.60
2023-05-13T19:54:35.488Z,17.88
2023-05-13T19:57:41.264Z,15.47
2023-05-13T20:00:44.246Z,16.17
2023-05-13T20:03:46.976Z,16.60
2023-05-13T20:06:49.667Z,15.27
2023-05-13T20:09:52.510Z,18.30
2023-05-13T20:12:55.056Z,15.63
2023-05-13T20:15:57.645Z,15.87
2023-05-13T20:19:00.284Z,14.45
2023-05-13T20:22:03.479Z,16.83
2023-05-13T20:25:06.954Z,15.60
2023-05-13T20:28:10.236Z,18.30
2023-05-13T20:31:13.010Z,14.93
2023-05-13T20:34:15.921Z,16.05
2023-05-13T20:37:19.735Z,14.63
2023-05-13T20:40:24.023Z,16.00
2023-05-13T20:43:26.758Z,15.13
2023-05-13T20:46:29.520Z,16.80
2023-05-13T20:49:32.760Z,17.55
2023-05-13T20:52:35.456Z,14.73
2023-05-13T20:55:38.070Z,15.63
2023-05-13T20:58:40.626Z,14.23
2023-05-13T21:01:47.658Z,16.63
2023-05-13T21:04:53.063Z,15.60
2023-05-13T21:07:58.106Z,15.68
2023-05-13T21:11:00.866Z,16.13
2023-05-13T21:14:03.722Z,14.23
2023-05-13T21:17:06.439Z,14.57
2023-05-13T21:20:11.018Z,16.20
2023-05-13T21:23:13.713Z,14.25
2023-05-13T21:26:16.369Z,14.98
2023-05-13T21:29:21.599Z,14.17
2023-05-13T21:32:27.547Z,14.33
2023-05-13T21:35:30.225Z,14.70
2023-05-13T21:38:32.849Z,14.82
2023-05-13T21:41:35.976Z,15.00
2023-05-13T21:44:38.590Z,16.07
2023-05-13T21:47:41.335Z,16.40
2023-05-13T21:50:43.855Z,14.50
2023-05-13T21:53:46.394Z,15.55
2023-05-13T21:56:56.536Z,14.77
2023-05-13T21:59:59.110Z,17.67
2023-05-13T22:03:06.167Z,13.77
2023-05-13T22:06:08.861Z,16.70
2023-05-13T22:09:14.637Z,15.13
2023-05-13T22:12:17.265Z,16.02
2023-05-13T22:15:19.911Z,15.80
2023-05-13T22:18:25.554Z,15.43
2023-05-13T22:21:28.374Z,13.75
2023-05-13T22:24:31.146Z,16.58
2023-05-13T22:27:33.985Z,20.55
2023-05-13T22:30:42.558Z,22.83
2023-05-13T22:33:47.012Z,23.57
2023-05-13T22:36:50.340Z,19.63
2023-05-13T22:39:52.830Z,20.83
2023-05-13T22:42:55.609Z,19.83
2023-05-13T22:45:58.283Z,18.23
2023-05-13T22:49:03.205Z,16.83
2023-05-13T22:52:06.324Z,19.13
2023-05-13T22:55:09.385Z,20.83
2023-05-13T22:58:13.576Z,18.25
2023-05-13T23:01:16.158Z,20.37
2023-05-13T23:04:18.785Z,19.63
2023-05-13T23:07:21.489Z,21.08
2023-05-13T23:10:24.291Z,19.95
2023-05-13T23:13:27.036Z,23.80
2023-05-13T23:16:32.353Z,23.47
2023-05-13T23:19:35.318Z,24.20
2023-05-13T23:22:38.693Z,26.95
2023-05-13T23:25:45.289Z,24.85
2023-05-13T23:28:47.923Z,25.38
2023-05-13T23:31:50.895Z,27.70
2023-05-13T23:34:53.536Z,26.13
2023-05-13T23:37:56.114Z,25.60
2023-05-13T23:40:58.684Z,26.88
2023-05-13T23:44:03.752Z,22.90
2023-05-13T23:47:06.347Z,28.03
2023-05-13T23:50:09.289Z,26.13
2023-05-13T23:53:11.825Z,26.77
2023-05-13T23:56:14.494Z,30.25
2023-05-13T23:59:17.073Z,28.55
